aviador You're here:

KJNX Decoded Metar

SMITHFIELD JOHNS in NC, USA
Report Time2017-10-20 12:10:00
UTC Time2017-10-20 12:22:23
Flight Rules vfr VFR
WindCalm
Visibility9999 m
Phenomena:N/A
Clouds:N/A
CeilingNone
Temp06°C (ISA -9)
Dew Point06°C (100% RH)
AAT5.1°C
QNH1024 hPa
Density Alt-1,129 ft
Elevation164 ft
Report Wrong Elevation
Raw Report
METAR KJNX 201210Z AUTO 00000KT 10SM CLR 06/06 A3024 RMK AO2=

Extra information for KJNX:More info

Metar Taf Metar & Taf Last 4 Metars F.Rules Stats Wind Profile Meteogram Temp Stats Airport Information Weather charts Add Link Nearby VenuesMetar ALERT Operation Metar Decoded Social comments

AIRNAV info for KJNX